sensor_id;sensor_type;location;lat;lon;timestamp;temperature;humidity
29501;DHT22;16450;50.288;10.966;2023-08-31T00:02:27;13.20;99.90
29501;DHT22;16450;50.288;10.966;2023-08-31T00:05:29;13.10;99.90
29501;DHT22;16450;50.288;10.966;2023-08-31T00:08:32;13.10;99.90
29501;DHT22;16450;50.288;10.966;2023-08-31T00:11:37;13.20;99.90
29501;DHT22;16450;50.288;10.966;2023-08-31T00:14:39;13.20;99.90
29501;DHT22;16450;50.288;10.966;2023-08-31T00:17:41;13.20;99.90
29501;DHT22;16450;50.288;10.966;2023-08-31T00:20:43;13.20;99.90
29501;DHT22;16450;50.288;10.966;2023-08-31T00:23:44;13.30;99.90
29501;DHT22;16450;50.288;10.966;2023-08-31T00:26:48;13.20;99.90
29501;DHT22;16450;50.288;10.966;2023-08-31T00:29:52;13.30;99.90
29501;DHT22;16450;50.288;10.966;2023-08-31T00:32:54;13.40;99.90
29501;DHT22;16450;50.288;10.966;2023-08-31T00:36:01;13.40;99.90
29501;DHT22;16450;50.288;10.966;2023-08-31T00:39:05;13.40;99.90
29501;DHT22;16450;50.288;10.966;2023-08-31T00:42:09;13.40;99.90
29501;DHT22;16450;50.288;10.966;2023-08-31T00:45:11;13.50;99.90
29501;DHT22;16450;50.288;10.966;2023-08-31T00:48:15;13.50;99.90
29501;DHT22;16450;50.288;10.966;2023-08-31T00:51:21;13.40;99.90
29501;DHT22;16450;50.288;10.966;2023-08-31T00:54:23;13.50;99.90
29501;DHT22;16450;50.288;10.966;2023-08-31T00:57:26;13.40;99.90
29501;DHT22;16450;50.288;10.966;2023-08-31T01:03:50;13.30;99.90
29501;DHT22;16450;50.288;10.966;2023-08-31T01:10:28;13.20;99.90
29501;DHT22;16450;50.288;10.966;2023-08-31T01:13:32;13.20;99.90
29501;DHT22;16450;50.288;10.966;2023-08-31T01:16:36;13.20;99.90
29501;DHT22;16450;50.288;10.966;2023-08-31T01:19:48;13.20;99.90
29501;DHT22;16450;50.288;10.966;2023-08-31T01:22:57;13.10;99.90
29501;DHT22;16450;50.288;10.966;2023-08-31T01:26:01;13.10;99.90
29501;DHT22;16450;50.288;10.966;2023-08-31T01:29:04;13.10;99.90
29501;DHT22;16450;50.288;10.966;2023-08-31T01:32:06;13.10;99.90
29501;DHT22;16450;50.288;10.966;2023-08-31T01:35:09;13.00;99.90
29501;DHT22;16450;50.288;10.966;2023-08-31T01:38:11;12.90;99.90
29501;DHT22;16450;50.288;10.966;2023-08-31T01:41:19;12.90;99.90
29501;DHT22;16450;50.288;10.966;2023-08-31T01:44:23;12.80;99.90
29501;DHT22;16450;50.288;10.966;2023-08-31T01:47:25;12.80;99.90
29501;DHT22;16450;50.288;10.966;2023-08-31T01:50:27;12.80;99.90
29501;DHT22;16450;50.288;10.966;2023-08-31T01:53:29;12.80;99.90
29501;DHT22;16450;50.288;10.966;2023-08-31T01:56:31;12.80;99.90
29501;DHT22;16450;50.288;10.966;2023-08-31T01:59:34;12.70;99.90
29501;DHT22;16450;50.288;10.966;2023-08-31T02:02:36;12.80;99.90
29501;DHT22;16450;50.288;10.966;2023-08-31T02:05:38;12.70;99.90
29501;DHT22;16450;50.288;10.966;2023-08-31T02:08:40;12.60;99.90
29501;DHT22;16450;50.288;10.966;2023-08-31T02:11:42;12.60;99.90
29501;DHT22;16450;50.288;10.966;2023-08-31T02:14:44;12.60;99.90
29501;DHT22;16450;50.288;10.966;2023-08-31T02:17:46;12.60;99.90
29501;DHT22;16450;50.288;10.966;2023-08-31T02:20:48;12.50;99.90
29501;DHT22;16450;50.288;10.966;2023-08-31T02:23:53;12.50;99.90
29501;DHT22;16450;50.288;10.966;2023-08-31T02:26:56;12.50;99.90
29501;DHT22;16450;50.288;10.966;2023-08-31T02:29:57;12.50;99.90
29501;DHT22;16450;50.288;10.966;2023-08-31T02:32:59;12.50;99.90
29501;DHT22;16450;50.288;10.966;2023-08-31T02:36:01;12.50;99.90
29501;DHT22;16450;50.288;10.966;2023-08-31T02:39:03;12.50;99.90
29501;DHT22;16450;50.288;10.966;2023-08-31T02:42:05;12.50;99.90
29501;DHT22;16450;50.288;10.966;2023-08-31T02:45:07;12.60;99.90
29501;DHT22;16450;50.288;10.966;2023-08-31T02:48:09;12.60;99.90
29501;DHT22;16450;50.288;10.966;2023-08-31T02:51:11;12.60;99.90
29501;DHT22;16450;50.288;10.966;2023-08-31T02:54:13;12.60;99.90
29501;DHT22;16450;50.288;10.966;2023-08-31T02:57:15;12.60;99.90
29501;DHT22;16450;50.288;10.966;2023-08-31T03:00:21;12.60;99.90
29501;DHT22;16450;50.288;10.966;2023-08-31T03:03:23;12.60;99.90
29501;DHT22;16450;50.288;10.966;2023-08-31T03:06:26;12.60;99.90
29501;DHT22;16450;50.288;10.966;2023-08-31T03:09:28;12.70;99.90
29501;DHT22;16450;50.288;10.966;2023-08-31T03:12:29;12.60;99.90
29501;DHT22;16450;50.288;10.966;2023-08-31T03:15:34;12.60;99.90
29501;DHT22;16450;50.288;10.966;2023-08-31T03:18:36;12.60;99.90
29501;DHT22;16450;50.288;10.966;2023-08-31T03:21:38;12.60;99.90
29501;DHT22;16450;50.288;10.966;2023-08-31T03:24:40;12.50;99.90
29501;DHT22;16450;50.288;10.966;2023-08-31T03:27:43;12.50;99.90
29501;DHT22;16450;50.288;10.966;2023-08-31T03:30:46;12.50;99.90
29501;DHT22;16450;50.288;10.966;2023-08-31T03:33:50;12.40;99.90
29501;DHT22;16450;50.288;10.966;2023-08-31T03:36:57;12.40;99.90
29501;DHT22;16450;50.288;10.966;2023-08-31T03:39:59;12.40;99.90
29501;DHT22;16450;50.288;10.966;2023-08-31T03:43:01;12.30;99.90
29501;DHT22;16450;50.288;10.966;2023-08-31T03:46:03;12.20;99.90
29501;DHT22;16450;50.288;10.966;2023-08-31T03:49:05;12.20;99.90
29501;DHT22;16450;50.288;10.966;2023-08-31T03:52:07;12.20;99.90
29501;DHT22;16450;50.288;10.966;2023-08-31T03:55:08;12.10;99.90
29501;DHT22;16450;50.288;10.966;2023-08-31T03:58:10;12.10;99.90
29501;DHT22;16450;50.288;10.966;2023-08-31T04:01:13;12.10;99.90
29501;DHT22;16450;50.288;10.966;2023-08-31T04:04:16;12.10;99.90
29501;DHT22;16450;50.288;10.966;2023-08-31T04:07:18;12.10;99.90
29501;DHT22;16450;50.288;10.966;2023-08-31T04:10:19;12.10;99.90
29501;DHT22;16450;50.288;10.966;2023-08-31T04:13:21;12.10;99.90
29501;DHT22;16450;50.288;10.966;2023-08-31T04:16:23;12.20;99.90
29501;DHT22;16450;50.288;10.966;2023-08-31T04:19:25;12.20;99.90
29501;DHT22;16450;50.288;10.966;2023-08-31T04:22:27;12.20;99.90
29501;DHT22;16450;50.288;10.966;2023-08-31T04:25:29;12.20;99.90
29501;DHT22;16450;50.288;10.966;2023-08-31T04:28:33;12.20;99.90
29501;DHT22;16450;50.288;10.966;2023-08-31T04:31:35;12.20;99.90
29501;DHT22;16450;50.288;10.966;2023-08-31T04:34:38;12.20;99.90
29501;DHT22;16450;50.288;10.966;2023-08-31T04:37:40;12.20;99.90
29501;DHT22;16450;50.288;10.966;2023-08-31T04:40:43;12.20;99.90
29501;DHT22;16450;50.288;10.966;2023-08-31T04:43:45;12.20;99.90
29501;DHT22;16450;50.288;10.966;2023-08-31T04:46:51;12.20;99.90
29501;DHT22;16450;50.288;10.966;2023-08-31T04:49:53;12.30;99.90
29501;DHT22;16450;50.288;10.966;2023-08-31T04:52:54;12.30;99.90
29501;DHT22;16450;50.288;10.966;2023-08-31T04:55:56;12.30;99.90
29501;DHT22;16450;50.288;10.966;2023-08-31T04:58:59;12.30;99.90
29501;DHT22;16450;50.288;10.966;2023-08-31T05:02:01;12.30;99.90
29501;DHT22;16450;50.288;10.966;2023-08-31T05:05:03;12.30;99.90
29501;DHT22;16450;50.288;10.966;2023-08-31T05:08:05;12.30;99.90
29501;DHT22;16450;50.288;10.966;2023-08-31T05:11:07;12.40;99.90
29501;DHT22;16450;50.288;10.966;2023-08-31T05:14:09;12.40;99.90
29501;DHT22;16450;50.288;10.966;2023-08-31T05:17:11;12.40;99.90
29501;DHT22;16450;50.288;10.966;2023-08-31T05:20:13;12.40;99.90
29501;DHT22;16450;50.288;10.966;2023-08-31T05:23:15;12.40;99.90
29501;DHT22;16450;50.288;10.966;2023-08-31T05:26:17;12.40;99.90
29501;DHT22;16450;50.288;10.966;2023-08-31T05:29:19;12.50;99.90
29501;DHT22;16450;50.288;10.966;2023-08-31T05:32:20;12.40;99.90
29501;DHT22;16450;50.288;10.966;2023-08-31T05:35:22;12.50;99.90
29501;DHT22;16450;50.288;10.966;2023-08-31T05:38:24;12.50;99.90
29501;DHT22;16450;50.288;10.966;2023-08-31T05:41:26;12.50;99.90
29501;DHT22;16450;50.288;10.966;2023-08-31T05:44:28;12.50;99.90
29501;DHT22;16450;50.288;10.966;2023-08-31T05:47:30;12.50;99.90
29501;DHT22;16450;50.288;10.966;2023-08-31T05:50:33;12.60;99.90
29501;DHT22;16450;50.288;10.966;2023-08-31T05:53:34;12.60;99.90
29501;DHT22;16450;50.288;10.966;2023-08-31T05:56:37;12.60;99.90
29501;DHT22;16450;50.288;10.966;2023-08-31T05:59:39;12.80;99.90
29501;DHT22;16450;50.288;10.966;2023-08-31T06:02:40;12.80;99.90
29501;DHT22;16450;50.288;10.966;2023-08-31T06:05:42;12.80;99.90
29501;DHT22;16450;50.288;10.966;2023-08-31T06:08:44;12.90;99.90
29501;DHT22;16450;50.288;10.966;2023-08-31T06:11:46;12.90;99.90
29501;DHT22;16450;50.288;10.966;2023-08-31T06:14:47;12.90;99.90
29501;DHT22;16450;50.288;10.966;2023-08-31T06:17:49;12.90;99.90
29501;DHT22;16450;50.288;10.966;2023-08-31T06:20:51;12.90;99.90
29501;DHT22;16450;50.288;10.966;2023-08-31T06:23:53;13.00;99.90
29501;DHT22;16450;50.288;10.966;2023-08-31T06:26:55;13.00;99.90
29501;DHT22;16450;50.288;10.966;2023-08-31T06:29:58;13.00;99.90
29501;DHT22;16450;50.288;10.966;2023-08-31T06:32:59;13.00;99.90
29501;DHT22;16450;50.288;10.966;2023-08-31T06:36:01;13.00;99.90
29501;DHT22;16450;50.288;10.966;2023-08-31T06:39:06;13.00;99.90
29501;DHT22;16450;50.288;10.966;2023-08-31T06:42:08;13.10;99.90
29501;DHT22;16450;50.288;10.966;2023-08-31T06:45:10;13.10;99.90
29501;DHT22;16450;50.288;10.966;2023-08-31T06:48:12;13.10;99.90
29501;DHT22;16450;50.288;10.966;2023-08-31T06:51:13;13.10;99.90
29501;DHT22;16450;50.288;10.966;2023-08-31T06:54:15;13.10;99.90
29501;DHT22;16450;50.288;10.966;2023-08-31T06:57:18;13.10;99.90
29501;DHT22;16450;50.288;10.966;2023-08-31T07:00:20;13.20;99.90
29501;DHT22;16450;50.288;10.966;2023-08-31T07:03:21;13.20;99.90
29501;DHT22;16450;50.288;10.966;2023-08-31T07:06:27;13.10;99.90
29501;DHT22;16450;50.288;10.966;2023-08-31T07:09:29;13.20;99.90
29501;DHT22;16450;50.288;10.966;2023-08-31T07:12:31;13.20;99.90
29501;DHT22;16450;50.288;10.966;2023-08-31T07:15:33;13.30;99.90
29501;DHT22;16450;50.288;10.966;2023-08-31T07:18:36;13.40;99.90
29501;DHT22;16450;50.288;10.966;2023-08-31T07:21:38;13.40;99.90
29501;DHT22;16450;50.288;10.966;2023-08-31T07:24:40;13.50;99.90
29501;DHT22;16450;50.288;10.966;2023-08-31T07:27:42;13.50;99.90
29501;DHT22;16450;50.288;10.966;2023-08-31T07:30:43;13.60;99.90
29501;DHT22;16450;50.288;10.966;2023-08-31T07:33:45;13.60;99.90
29501;DHT22;16450;50.288;10.966;2023-08-31T07:36:47;13.60;99.90
29501;DHT22;16450;50.288;10.966;2023-08-31T07:39:49;13.70;99.90
29501;DHT22;16450;50.288;10.966;2023-08-31T07:42:51;13.80;99.90
29501;DHT22;16450;50.288;10.966;2023-08-31T07:45:53;13.80;99.90
29501;DHT22;16450;50.288;10.966;2023-08-31T07:48:55;13.90;99.90
29501;DHT22;16450;50.288;10.966;2023-08-31T07:51:57;14.00;99.90
29501;DHT22;16450;50.288;10.966;2023-08-31T07:55:00;14.10;99.90
29501;DHT22;16450;50.288;10.966;2023-08-31T07:58:01;14.10;99.90
29501;DHT22;16450;50.288;10.966;2023-08-31T08:01:05;14.20;99.90
29501;DHT22;16450;50.288;10.966;2023-08-31T08:04:08;14.30;99.90
29501;DHT22;16450;50.288;10.966;2023-08-31T08:07:10;14.40;99.90
29501;DHT22;16450;50.288;10.966;2023-08-31T08:10:12;14.50;99.90
29501;DHT22;16450;50.288;10.966;2023-08-31T08:13:14;14.60;99.90
29501;DHT22;16450;50.288;10.966;2023-08-31T08:16:17;14.70;99.90
29501;DHT22;16450;50.288;10.966;2023-08-31T08:19:22;14.80;99.90
29501;DHT22;16450;50.288;10.966;2023-08-31T08:22:25;14.90;99.90
29501;DHT22;16450;50.288;10.966;2023-08-31T08:25:26;15.00;99.90
29501;DHT22;16450;50.288;10.966;2023-08-31T08:28:28;15.00;99.90
29501;DHT22;16450;50.288;10.966;2023-08-31T08:31:30;15.10;99.90
29501;DHT22;16450;50.288;10.966;2023-08-31T08:34:32;15.10;99.90
29501;DHT22;16450;50.288;10.966;2023-08-31T08:37:34;15.20;99.90
29501;DHT22;16450;50.288;10.966;2023-08-31T08:40:36;15.20;99.90
29501;DHT22;16450;50.288;10.966;2023-08-31T08:43:41;15.30;99.90
29501;DHT22;16450;50.288;10.966;2023-08-31T08:46:45;15.50;99.90
29501;DHT22;16450;50.288;10.966;2023-08-31T08:49:48;15.70;99.90
29501;DHT22;16450;50.288;10.966;2023-08-31T08:52:50;16.00;99.90
29501;DHT22;16450;50.288;10.966;2023-08-31T08:55:52;16.30;99.90
29501;DHT22;16450;50.288;10.966;2023-08-31T08:58:54;16.40;99.90
29501;DHT22;16450;50.288;10.966;2023-08-31T09:01:56;16.60;99.90
29501;DHT22;16450;50.288;10.966;2023-08-31T09:04:58;16.50;99.90
29501;DHT22;16450;50.288;10.966;2023-08-31T09:08:08;16.40;99.90
29501;DHT22;16450;50.288;10.966;2023-08-31T09:11:20;16.30;99.90
29501;DHT22;16450;50.288;10.966;2023-08-31T09:14:24;16.30;99.90
29501;DHT22;16450;50.288;10.966;2023-08-31T09:17:26;16.50;99.90
29501;DHT22;16450;50.288;10.966;2023-08-31T09:20:31;16.70;99.90
29501;DHT22;16450;50.288;10.966;2023-08-31T09:23:32;17.00;99.90
29501;DHT22;16450;50.288;10.966;2023-08-31T09:26:38;17.30;99.90
29501;DHT22;16450;50.288;10.966;2023-08-31T09:29:45;17.50;99.90
29501;DHT22;16450;50.288;10.966;2023-08-31T09:32:52;17.80;99.90
29501;DHT22;16450;50.288;10.966;2023-08-31T09:35:57;18.20;99.90
29501;DHT22;16450;50.288;10.966;2023-08-31T09:39:01;18.50;99.90
29501;DHT22;16450;50.288;10.966;2023-08-31T09:42:03;18.70;99.90
29501;DHT22;16450;50.288;10.966;2023-08-31T09:45:06;18.60;99.90
29501;DHT22;16450;50.288;10.966;2023-08-31T09:48:08;18.50;99.90
29501;DHT22;16450;50.288;10.966;2023-08-31T09:51:10;18.30;99.90
29501;DHT22;16450;50.288;10.966;2023-08-31T09:54:14;18.10;99.90
29501;DHT22;16450;50.288;10.966;2023-08-31T09:57:18;17.90;99.90
29501;DHT22;16450;50.288;10.966;2023-08-31T10:00:30;17.80;99.90
29501;DHT22;16450;50.288;10.966;2023-08-31T10:03:33;17.70;99.90
29501;DHT22;16450;50.288;10.966;2023-08-31T10:06:35;17.70;99.90
29501;DHT22;16450;50.288;10.966;2023-08-31T10:09:40;17.60;99.90
29501;DHT22;16450;50.288;10.966;2023-08-31T10:12:45;17.60;99.90
29501;DHT22;16450;50.288;10.966;2023-08-31T10:15:49;17.50;99.90
29501;DHT22;16450;50.288;10.966;2023-08-31T10:18:51;17.50;99.90
29501;DHT22;16450;50.288;10.966;2023-08-31T10:21:54;17.40;99.90
29501;DHT22;16450;50.288;10.966;2023-08-31T10:24:59;17.50;99.90
29501;DHT22;16450;50.288;10.966;2023-08-31T10:28:17;17.60;99.90
29501;DHT22;16450;50.288;10.966;2023-08-31T10:31:19;17.80;99.90
29501;DHT22;16450;50.288;10.966;2023-08-31T10:34:35;17.90;99.90
29501;DHT22;16450;50.288;10.966;2023-08-31T10:37:39;18.10;99.90
29501;DHT22;16450;50.288;10.966;2023-08-31T10:40:42;18.30;99.90
29501;DHT22;16450;50.288;10.966;2023-08-31T10:46:49;18.50;99.90
29501;DHT22;16450;50.288;10.966;2023-08-31T10:49:51;18.60;99.90
29501;DHT22;16450;50.288;10.966;2023-08-31T10:52:55;18.60;99.90
29501;DHT22;16450;50.288;10.966;2023-08-31T10:55:56;18.60;99.90
29501;DHT22;16450;50.288;10.966;2023-08-31T10:58:59;18.50;99.90
29501;DHT22;16450;50.288;10.966;2023-08-31T11:02:02;18.50;99.90
29501;DHT22;16450;50.288;10.966;2023-08-31T11:05:16;18.40;99.90
29501;DHT22;16450;50.288;10.966;2023-08-31T11:08:23;18.40;99.90
29501;DHT22;16450;50.288;10.966;2023-08-31T11:11:25;18.40;99.90
29501;DHT22;16450;50.288;10.966;2023-08-31T11:14:27;18.40;99.90
29501;DHT22;16450;50.288;10.966;2023-08-31T11:17:29;18.50;99.90
29501;DHT22;16450;50.288;10.966;2023-08-31T11:20:32;18.70;99.90
29501;DHT22;16450;50.288;10.966;2023-08-31T11:23:35;18.70;99.90
29501;DHT22;16450;50.288;10.966;2023-08-31T11:26:38;18.80;99.90
29501;DHT22;16450;50.288;10.966;2023-08-31T11:29:43;18.80;99.90
29501;DHT22;16450;50.288;10.966;2023-08-31T11:32:51;18.80;99.90
29501;DHT22;16450;50.288;10.966;2023-08-31T11:35:53;18.70;99.90
29501;DHT22;16450;50.288;10.966;2023-08-31T11:38:55;18.60;99.90
29501;DHT22;16450;50.288;10.966;2023-08-31T11:41:57;18.40;99.90
29501;DHT22;16450;50.288;10.966;2023-08-31T11:44:59;18.30;99.90
29501;DHT22;16450;50.288;10.966;2023-08-31T11:48:01;18.20;99.90
29501;DHT22;16450;50.288;10.966;2023-08-31T11:51:04;18.20;99.90
29501;DHT22;16450;50.288;10.966;2023-08-31T11:54:06;18.20;99.90
29501;DHT22;16450;50.288;10.966;2023-08-31T11:57:10;18.20;99.90
29501;DHT22;16450;50.288;10.966;2023-08-31T12:00:12;18.20;99.90
29501;DHT22;16450;50.288;10.966;2023-08-31T12:03:17;18.20;99.90
29501;DHT22;16450;50.288;10.966;2023-08-31T12:06:20;18.20;99.90
29501;DHT22;16450;50.288;10.966;2023-08-31T12:09:21;18.20;99.90
29501;DHT22;16450;50.288;10.966;2023-08-31T12:12:24;18.20;99.90
29501;DHT22;16450;50.288;10.966;2023-08-31T12:15:30;18.10;99.90
29501;DHT22;16450;50.288;10.966;2023-08-31T12:18:32;18.10;99.90
29501;DHT22;16450;50.288;10.966;2023-08-31T12:21:34;18.00;99.90
29501;DHT22;16450;50.288;10.966;2023-08-31T12:24:40;18.20;99.90
29501;DHT22;16450;50.288;10.966;2023-08-31T12:27:42;18.30;99.90
29501;DHT22;16450;50.288;10.966;2023-08-31T12:30:51;18.50;99.90
29501;DHT22;16450;50.288;10.966;2023-08-31T12:33:53;18.70;99.90
29501;DHT22;16450;50.288;10.966;2023-08-31T12:36:55;18.80;99.90
29501;DHT22;16450;50.288;10.966;2023-08-31T12:40:01;18.80;99.90
29501;DHT22;16450;50.288;10.966;2023-08-31T12:43:06;18.80;99.90
29501;DHT22;16450;50.288;10.966;2023-08-31T12:46:08;18.70;99.90
29501;DHT22;16450;50.288;10.966;2023-08-31T12:49:11;18.70;99.90
29501;DHT22;16450;50.288;10.966;2023-08-31T12:52:13;18.80;99.90
29501;DHT22;16450;50.288;10.966;2023-08-31T12:55:16;18.90;99.90
29501;DHT22;16450;50.288;10.966;2023-08-31T12:58:18;19.00;99.90
29501;DHT22;16450;50.288;10.966;2023-08-31T13:01:21;19.00;99.90
29501;DHT22;16450;50.288;10.966;2023-08-31T13:04:24;19.00;99.90
29501;DHT22;16450;50.288;10.966;2023-08-31T13:07:26;19.00;99.90
29501;DHT22;16450;50.288;10.966;2023-08-31T13:10:28;19.00;99.90
29501;DHT22;16450;50.288;10.966;2023-08-31T13:13:30;18.80;99.90
29501;DHT22;16450;50.288;10.966;2023-08-31T13:16:33;18.80;99.90
29501;DHT22;16450;50.288;10.966;2023-08-31T13:19:38;18.70;99.90
29501;DHT22;16450;50.288;10.966;2023-08-31T13:22:40;18.60;99.90
29501;DHT22;16450;50.288;10.966;2023-08-31T13:25:42;18.50;99.90
29501;DHT22;16450;50.288;10.966;2023-08-31T13:28:43;18.50;99.90
29501;DHT22;16450;50.288;10.966;2023-08-31T13:31:45;18.50;99.90
29501;DHT22;16450;50.288;10.966;2023-08-31T13:34:47;18.40;99.90
29501;DHT22;16450;50.288;10.966;2023-08-31T13:37:49;18.40;99.90
29501;DHT22;16450;50.288;10.966;2023-08-31T13:40:57;18.40;99.90
29501;DHT22;16450;50.288;10.966;2023-08-31T13:43:58;18.30;99.90
29501;DHT22;16450;50.288;10.966;2023-08-31T13:47:00;18.40;99.90
29501;DHT22;16450;50.288;10.966;2023-08-31T13:50:05;18.40;99.90
29501;DHT22;16450;50.288;10.966;2023-08-31T13:53:08;18.40;99.90
29501;DHT22;16450;50.288;10.966;2023-08-31T13:56:10;18.40;99.90
29501;DHT22;16450;50.288;10.966;2023-08-31T13:59:12;18.40;99.90
29501;DHT22;16450;50.288;10.966;2023-08-31T14:02:14;18.40;99.90
29501;DHT22;16450;50.288;10.966;2023-08-31T14:05:16;18.50;99.90
29501;DHT22;16450;50.288;10.966;2023-08-31T14:08:18;18.50;99.90
29501;DHT22;16450;50.288;10.966;2023-08-31T14:11:20;18.50;99.90
29501;DHT22;16450;50.288;10.966;2023-08-31T14:14:22;18.50;99.90
29501;DHT22;16450;50.288;10.966;2023-08-31T14:17:25;18.50;99.90
29501;DHT22;16450;50.288;10.966;2023-08-31T14:20:27;18.60;99.90
29501;DHT22;16450;50.288;10.966;2023-08-31T14:23:29;18.70;99.90
29501;DHT22;16450;50.288;10.966;2023-08-31T14:26:32;18.80;99.90
29501;DHT22;16450;50.288;10.966;2023-08-31T14:29:34;18.80;99.90
29501;DHT22;16450;50.288;10.966;2023-08-31T14:32:36;18.90;99.90
29501;DHT22;16450;50.288;10.966;2023-08-31T14:35:38;18.90;99.90
29501;DHT22;16450;50.288;10.966;2023-08-31T14:38:41;18.90;99.90
29501;DHT22;16450;50.288;10.966;2023-08-31T14:41:42;19.00;99.90
29501;DHT22;16450;50.288;10.966;2023-08-31T14:44:44;19.00;99.90
29501;DHT22;16450;50.288;10.966;2023-08-31T14:47:46;19.00;99.90
29501;DHT22;16450;50.288;10.966;2023-08-31T14:50:49;19.00;99.90
29501;DHT22;16450;50.288;10.966;2023-08-31T14:53:51;19.00;99.90
29501;DHT22;16450;50.288;10.966;2023-08-31T14:56:53;19.00;99.90
29501;DHT22;16450;50.288;10.966;2023-08-31T14:59:55;19.00;99.90
29501;DHT22;16450;50.288;10.966;2023-08-31T15:03:03;19.00;99.90
29501;DHT22;16450;50.288;10.966;2023-08-31T15:06:06;18.90;99.90
29501;DHT22;16450;50.288;10.966;2023-08-31T15:09:07;18.90;99.90
29501;DHT22;16450;50.288;10.966;2023-08-31T15:12:10;18.80;99.90
29501;DHT22;16450;50.288;10.966;2023-08-31T15:15:12;18.70;99.90
29501;DHT22;16450;50.288;10.966;2023-08-31T15:18:13;18.60;99.90
29501;DHT22;16450;50.288;10.966;2023-08-31T15:21:16;18.60;99.90
29501;DHT22;16450;50.288;10.966;2023-08-31T15:24:18;18.50;99.90
29501;DHT22;16450;50.288;10.966;2023-08-31T15:27:20;18.50;99.90
29501;DHT22;16450;50.288;10.966;2023-08-31T15:30:22;18.50;99.90
29501;DHT22;16450;50.288;10.966;2023-08-31T15:33:24;18.40;99.90
29501;DHT22;16450;50.288;10.966;2023-08-31T15:36:26;18.40;99.90
29501;DHT22;16450;50.288;10.966;2023-08-31T15:39:28;18.30;99.90
29501;DHT22;16450;50.288;10.966;2023-08-31T15:42:30;18.20;99.90
29501;DHT22;16450;50.288;10.966;2023-08-31T15:45:32;18.20;99.90
29501;DHT22;16450;50.288;10.966;2023-08-31T15:48:34;18.10;99.90
29501;DHT22;16450;50.288;10.966;2023-08-31T15:51:36;18.00;99.90
29501;DHT22;16450;50.288;10.966;2023-08-31T15:54:38;18.10;99.90
29501;DHT22;16450;50.288;10.966;2023-08-31T15:57:41;18.00;99.90
29501;DHT22;16450;50.288;10.966;2023-08-31T16:00:43;18.00;99.90
29501;DHT22;16450;50.288;10.966;2023-08-31T16:03:45;17.90;99.90
29501;DHT22;16450;50.288;10.966;2023-08-31T16:06:47;17.90;99.90
29501;DHT22;16450;50.288;10.966;2023-08-31T16:09:51;17.90;99.90
29501;DHT22;16450;50.288;10.966;2023-08-31T16:12:55;17.90;99.90
29501;DHT22;16450;50.288;10.966;2023-08-31T16:15:57;17.90;99.90
29501;DHT22;16450;50.288;10.966;2023-08-31T16:18:59;17.90;99.90
29501;DHT22;16450;50.288;10.966;2023-08-31T16:22:01;17.90;99.90
29501;DHT22;16450;50.288;10.966;2023-08-31T16:25:04;17.80;99.90
29501;DHT22;16450;50.288;10.966;2023-08-31T16:28:06;17.80;99.90
29501;DHT22;16450;50.288;10.966;2023-08-31T16:31:09;17.80;99.90
29501;DHT22;16450;50.288;10.966;2023-08-31T16:34:12;17.80;99.90
29501;DHT22;16450;50.288;10.966;2023-08-31T16:37:13;17.80;99.90
29501;DHT22;16450;50.288;10.966;2023-08-31T16:40:16;17.80;99.90
29501;DHT22;16450;50.288;10.966;2023-08-31T16:43:18;17.80;99.90
29501;DHT22;16450;50.288;10.966;2023-08-31T16:46:20;17.80;99.90
29501;DHT22;16450;50.288;10.966;2023-08-31T16:49:21;17.90;99.90
29501;DHT22;16450;50.288;10.966;2023-08-31T16:52:23;18.00;99.90
29501;DHT22;16450;50.288;10.966;2023-08-31T16:55:25;18.00;99.90
29501;DHT22;16450;50.288;10.966;2023-08-31T16:58:28;18.00;99.90
29501;DHT22;16450;50.288;10.966;2023-08-31T17:01:30;18.00;99.90
29501;DHT22;16450;50.288;10.966;2023-08-31T17:04:32;18.10;99.90
29501;DHT22;16450;50.288;10.966;2023-08-31T17:07:34;18.10;99.90
29501;DHT22;16450;50.288;10.966;2023-08-31T17:10:39;18.10;99.90
29501;DHT22;16450;50.288;10.966;2023-08-31T17:13:41;18.00;99.90
29501;DHT22;16450;50.288;10.966;2023-08-31T17:16:44;18.00;99.90
29501;DHT22;16450;50.288;10.966;2023-08-31T17:19:46;18.00;99.90
29501;DHT22;16450;50.288;10.966;2023-08-31T17:22:48;17.90;99.90
29501;DHT22;16450;50.288;10.966;2023-08-31T17:25:49;17.80;99.90
29501;DHT22;16450;50.288;10.966;2023-08-31T17:28:51;17.70;99.90
29501;DHT22;16450;50.288;10.966;2023-08-31T17:31:53;17.70;99.90
29501;DHT22;16450;50.288;10.966;2023-08-31T17:34:55;17.60;99.90
29501;DHT22;16450;50.288;10.966;2023-08-31T17:37:57;17.50;99.90
29501;DHT22;16450;50.288;10.966;2023-08-31T17:40:59;17.50;99.90
29501;DHT22;16450;50.288;10.966;2023-08-31T17:44:01;17.30;99.90
29501;DHT22;16450;50.288;10.966;2023-08-31T17:47:07;17.30;99.90
29501;DHT22;16450;50.288;10.966;2023-08-31T17:50:09;17.20;99.90
29501;DHT22;16450;50.288;10.966;2023-08-31T17:53:11;17.10;99.90
29501;DHT22;16450;50.288;10.966;2023-08-31T17:56:13;17.10;99.90
29501;DHT22;16450;50.288;10.966;2023-08-31T17:59:15;17.00;99.90
29501;DHT22;16450;50.288;10.966;2023-08-31T18:02:19;16.90;99.90
29501;DHT22;16450;50.288;10.966;2023-08-31T18:05:21;16.90;99.90
29501;DHT22;16450;50.288;10.966;2023-08-31T18:08:24;16.80;99.90
29501;DHT22;16450;50.288;10.966;2023-08-31T18:11:28;16.70;99.90
29501;DHT22;16450;50.288;10.966;2023-08-31T18:14:30;16.70;99.90
29501;DHT22;16450;50.288;10.966;2023-08-31T18:17:32;16.60;99.90
29501;DHT22;16450;50.288;10.966;2023-08-31T18:20:36;16.50;99.90
29501;DHT22;16450;50.288;10.966;2023-08-31T18:23:38;16.40;99.90
29501;DHT22;16450;50.288;10.966;2023-08-31T18:26:42;16.30;99.90
29501;DHT22;16450;50.288;10.966;2023-08-31T18:29:44;16.30;99.90
29501;DHT22;16450;50.288;10.966;2023-08-31T18:32:47;16.20;99.90
29501;DHT22;16450;50.288;10.966;2023-08-31T18:35:53;16.20;99.90
29501;DHT22;16450;50.288;10.966;2023-08-31T18:38:55;16.10;99.90
29501;DHT22;16450;50.288;10.966;2023-08-31T18:41:57;16.00;99.90
29501;DHT22;16450;50.288;10.966;2023-08-31T18:44:59;16.00;99.90
29501;DHT22;16450;50.288;10.966;2023-08-31T18:48:03;15.90;99.90
29501;DHT22;16450;50.288;10.966;2023-08-31T18:51:05;15.90;99.90
29501;DHT22;16450;50.288;10.966;2023-08-31T18:54:07;15.80;99.90
29501;DHT22;16450;50.288;10.966;2023-08-31T18:57:09;15.80;99.90
29501;DHT22;16450;50.288;10.966;2023-08-31T19:00:13;15.70;99.90
29501;DHT22;16450;50.288;10.966;2023-08-31T19:03:16;15.70;99.90
29501;DHT22;16450;50.288;10.966;2023-08-31T19:06:17;15.70;99.90